createdAt,value
2019-02-19T00:00:35.242Z,5.00
2019-02-19T00:03:04.620Z,4.90
2019-02-19T00:05:33.550Z,4.80
2019-02-19T00:08:02.403Z,4.80
2019-02-19T00:10:31.200Z,4.80
2019-02-19T00:13:00.174Z,4.80
2019-02-19T00:15:29.171Z,4.80
2019-02-19T00:17:58.207Z,4.70
2019-02-19T00:20:27.038Z,4.70
2019-02-19T00:22:55.913Z,4.70
2019-02-19T00:25:24.700Z,4.70
2019-02-19T00:27:53.521Z,4.60
2019-02-19T00:30:22.429Z,4.60
2019-02-19T00:32:51.209Z,4.50
2019-02-19T00:35:20.162Z,4.50
2019-02-19T00:37:48.965Z,4.50
2019-02-19T00:40:17.875Z,4.50
2019-02-19T00:42:46.664Z,4.50
2019-02-19T00:45:16.974Z,4.50
2019-02-19T00:47:46.056Z,4.40
2019-02-19T00:50:14.914Z,4.40
2019-02-19T00:52:43.784Z,4.40
2019-02-19T00:55:12.635Z,4.30
2019-02-19T00:57:41.451Z,4.30
2019-02-19T01:00:11.460Z,4.30
2019-02-19T01:02:40.359Z,4.30
2019-02-19T01:05:09.349Z,4.20
2019-02-19T01:07:38.243Z,4.20
2019-02-19T01:10:07.515Z,4.20
2019-02-19T01:12:36.363Z,4.30
2019-02-19T01:15:06.521Z,4.30
2019-02-19T01:17:35.389Z,4.30
2019-02-19T01:20:04.922Z,4.40
2019-02-19T01:22:33.823Z,4.40
2019-02-19T01:25:02.769Z,4.40
2019-02-19T01:27:31.657Z,4.40
2019-02-19T01:30:00.597Z,4.40
2019-02-19T01:32:29.545Z,4.40
2019-02-19T01:34:58.385Z,4.40
2019-02-19T01:37:29.249Z,4.40
2019-02-19T01:39:58.113Z,4.40
2019-02-19T01:42:26.919Z,4.40
2019-02-19T01:44:55.721Z,4.30
2019-02-19T01:47:25.070Z,4.30
2019-02-19T01:49:54.061Z,4.40
2019-02-19T01:52:22.939Z,4.40
2019-02-19T01:54:51.945Z,4.30
2019-02-19T01:57:20.981Z,4.30
2019-02-19T01:59:50.061Z,4.30
2019-02-19T02:02:19.026Z,4.30
2019-02-19T02:04:47.857Z,4.30
2019-02-19T02:07:16.796Z,4.30
2019-02-19T02:09:47.015Z,4.20
2019-02-19T02:12:15.981Z,4.20
2019-02-19T02:14:44.943Z,4.20
2019-02-19T02:17:13.751Z,4.20
2019-02-19T02:19:42.583Z,4.20
2019-02-19T02:22:11.437Z,4.20
2019-02-19T02:24:40.338Z,4.20
2019-02-19T02:27:09.227Z,4.10
2019-02-19T02:29:38.145Z,4.10
2019-02-19T02:32:07.056Z,4.20
2019-02-19T02:34:35.932Z,4.20
2019-02-19T02:37:04.782Z,4.20
2019-02-19T02:39:33.730Z,4.20
2019-02-19T02:42:02.683Z,4.20
2019-02-19T02:44:31.750Z,4.30
2019-02-19T02:47:00.615Z,4.20
2019-02-19T02:49:30.668Z,4.20
2019-02-19T02:51:59.730Z,4.20
2019-02-19T02:54:28.574Z,4.20
2019-02-19T02:56:57.480Z,4.10
2019-02-19T02:59:26.371Z,4.10
2019-02-19T03:01:55.278Z,4.10
2019-02-19T03:04:24.164Z,4.00
2019-02-19T03:06:59.251Z,4.00
2019-02-19T03:09:28.284Z,4.00
2019-02-19T03:11:57.076Z,4.00
2019-02-19T03:14:26.003Z,4.00
2019-02-19T03:16:54.795Z,3.90
2019-02-19T03:19:23.631Z,4.00
2019-02-19T03:21:52.428Z,4.00
2019-02-19T03:24:21.232Z,3.90
2019-02-19T03:26:50.156Z,4.00
2019-02-19T03:29:19.115Z,4.00
2019-02-19T03:31:47.946Z,3.90
2019-02-19T03:34:16.830Z,3.90
2019-02-19T03:36:45.640Z,3.90
2019-02-19T03:39:14.498Z,4.00
2019-02-19T03:41:43.334Z,3.90
2019-02-19T03:44:12.183Z,3.90
2019-02-19T03:46:41.068Z,4.00
2019-02-19T03:49:09.911Z,3.90
2019-02-19T03:51:38.758Z,3.90
2019-02-19T03:54:07.651Z,3.90
2019-02-19T03:56:36.646Z,4.00
2019-02-19T03:59:05.560Z,3.90
2019-02-19T04:01:34.407Z,3.90
2019-02-19T04:04:03.302Z,3.90
2019-02-19T04:06:32.486Z,3.80
2019-02-19T04:09:01.307Z,3.80
2019-02-19T04:11:30.260Z,3.80
2019-02-19T04:13:59.290Z,3.80
2019-02-19T04:16:28.118Z,3.80
2019-02-19T04:18:57.204Z,3.80
2019-02-19T04:21:26.126Z,3.80
2019-02-19T04:23:54.944Z,3.80
2019-02-19T04:26:23.866Z,3.80
2019-02-19T04:28:52.800Z,3.80
2019-02-19T04:31:21.812Z,3.90
2019-02-19T04:33:50.687Z,3.90
2019-02-19T04:36:19.650Z,3.90
2019-02-19T04:38:48.542Z,3.90
2019-02-19T04:41:17.521Z,3.90
2019-02-19T04:43:46.603Z,3.90
2019-02-19T04:46:15.471Z,4.00
2019-02-19T04:48:44.342Z,4.00
2019-02-19T04:51:13.168Z,4.00
2019-02-19T04:53:41.984Z,4.00
2019-02-19T04:56:10.952Z,4.00
2019-02-19T04:58:39.824Z,3.90
2019-02-19T05:01:08.713Z,3.90
2019-02-19T05:03:37.619Z,3.90
2019-02-19T05:06:06.490Z,3.80
2019-02-19T05:08:35.554Z,3.80
2019-02-19T05:11:04.519Z,3.80
2019-02-19T05:13:33.332Z,3.80
2019-02-19T05:16:02.147Z,3.70
2019-02-19T05:18:31.002Z,3.70
2019-02-19T05:20:59.809Z,3.70
2019-02-19T05:23:28.611Z,3.70
2019-02-19T05:25:57.489Z,3.70
2019-02-19T05:28:26.426Z,3.60
2019-02-19T05:30:55.269Z,3.60
2019-02-19T05:33:24.202Z,3.60
2019-02-19T05:35:53.047Z,3.60
2019-02-19T05:38:21.897Z,3.60
2019-02-19T05:40:50.733Z,3.60
2019-02-19T05:43:19.719Z,3.70
2019-02-19T05:45:48.675Z,3.70
2019-02-19T05:48:17.465Z,3.70
2019-02-19T05:50:46.741Z,3.70
2019-02-19T05:53:15.664Z,3.70
2019-02-19T05:55:44.583Z,3.70
2019-02-19T05:58:13.502Z,3.80
2019-02-19T06:00:42.392Z,3.80
2019-02-19T06:03:11.307Z,3.80
2019-02-19T06:05:40.227Z,3.80
2019-02-19T06:08:09.104Z,3.90
2019-02-19T06:10:38.023Z,3.90
2019-02-19T06:13:06.915Z,3.90
2019-02-19T06:15:35.758Z,4.00
2019-02-19T06:18:05.641Z,4.00
2019-02-19T06:20:34.474Z,3.90
2019-02-19T06:23:03.457Z,3.90
2019-02-19T06:25:32.330Z,3.90
2019-02-19T06:28:01.183Z,3.90
2019-02-19T06:30:30.109Z,3.90
2019-02-19T06:32:59.938Z,3.90
2019-02-19T06:35:28.933Z,3.90
2019-02-19T06:37:57.761Z,3.90
2019-02-19T06:40:28.329Z,3.90
2019-02-19T06:43:00.208Z,3.90
2019-02-19T06:45:29.152Z,3.90
2019-02-19T06:47:58.293Z,3.90
2019-02-19T06:50:27.235Z,3.90
2019-02-19T06:52:56.172Z,3.90
2019-02-19T06:55:25.107Z,4.00
2019-02-19T06:57:54.061Z,4.00
2019-02-19T07:00:23.049Z,4.00
2019-02-19T07:02:57.373Z,4.00
2019-02-19T07:05:26.381Z,4.00
2019-02-19T07:07:55.337Z,4.10
2019-02-19T07:10:24.225Z,4.10
2019-02-19T07:12:53.775Z,4.20
2019-02-19T07:15:22.807Z,4.20
2019-02-19T07:17:51.847Z,4.30
2019-02-19T07:20:20.781Z,4.40
2019-02-19T07:22:49.625Z,4.50
2019-02-19T07:25:18.531Z,4.60
2019-02-19T07:27:51.494Z,4.70
2019-02-19T07:30:20.363Z,4.90
2019-02-19T07:32:49.205Z,5.00
2019-02-19T07:35:18.168Z,5.00
2019-02-19T07:37:47.109Z,5.10
2019-02-19T07:40:17.426Z,5.20
2019-02-19T07:42:46.505Z,5.20
2019-02-19T07:45:15.515Z,5.30
2019-02-19T07:47:44.444Z,5.40
2019-02-19T07:50:13.756Z,5.50
2019-02-19T07:52:42.753Z,5.60
2019-02-19T07:55:11.955Z,5.70
2019-02-19T07:57:41.054Z,5.70
2019-02-19T08:00:11.570Z,5.80
2019-02-19T08:02:42.730Z,6.00
2019-02-19T08:05:11.790Z,6.10
2019-02-19T08:07:40.714Z,6.20
2019-02-19T08:10:09.738Z,6.30
2019-02-19T08:12:38.753Z,6.40
2019-02-19T08:15:08.033Z,6.50
2019-02-19T08:17:36.890Z,6.60
2019-02-19T08:20:13.443Z,6.80
2019-02-19T08:22:36.655Z,6.90
2019-02-19T08:25:05.998Z,7.00
2019-02-19T08:27:34.954Z,7.10
2019-02-19T08:30:04.590Z,7.30
2019-02-19T08:32:33.446Z,7.50
2019-02-19T08:35:02.428Z,7.60
2019-02-19T08:37:31.331Z,7.70
2019-02-19T08:40:06.896Z,7.90
2019-02-19T08:42:35.714Z,8.00
2019-02-19T08:45:05.018Z,8.10
2019-02-19T08:47:42.281Z,8.10
2019-02-19T08:50:05.906Z,8.20
2019-02-19T08:52:34.818Z,8.20
2019-02-19T08:55:03.806Z,8.20
2019-02-19T08:57:32.629Z,8.30
2019-02-19T09:00:01.549Z,8.40
2019-02-19T09:02:30.521Z,8.50
2019-02-19T09:04:59.508Z,8.60
2019-02-19T09:07:28.330Z,8.70
2019-02-19T09:09:57.122Z,8.80
2019-02-19T09:12:25.964Z,8.80
2019-02-19T09:14:54.765Z,8.70
2019-02-19T09:17:23.618Z,8.80
2019-02-19T09:19:52.575Z,8.70
2019-02-19T09:22:21.463Z,8.70
2019-02-19T09:24:50.287Z,8.70
2019-02-19T09:27:19.130Z,8.70
2019-02-19T09:29:48.006Z,8.70
2019-02-19T09:32:16.782Z,8.80
2019-02-19T09:34:45.726Z,8.80
2019-02-19T09:37:15.642Z,8.80
2019-02-19T09:39:44.451Z,8.90
2019-02-19T09:42:13.366Z,9.00
2019-02-19T09:44:42.307Z,9.00
2019-02-19T09:47:11.319Z,8.90
2019-02-19T09:49:40.124Z,8.90
2019-02-19T09:52:09.154Z,8.90
2019-02-19T09:54:38.102Z,9.00
2019-02-19T09:57:08.095Z,9.10
2019-02-19T09:59:37.030Z,9.20
2019-02-19T10:02:05.882Z,9.20
2019-02-19T10:04:34.827Z,9.10
2019-02-19T10:07:03.742Z,9.00
2019-02-19T10:09:32.703Z,9.10
2019-02-19T10:12:01.534Z,9.10
2019-02-19T10:14:30.315Z,9.00
2019-02-19T10:16:59.361Z,9.00
2019-02-19T10:19:28.327Z,8.90
2019-02-19T10:21:57.157Z,8.90
2019-02-19T10:24:26.077Z,9.00
2019-02-19T10:26:55.025Z,9.00
2019-02-19T10:29:23.924Z,8.90
2019-02-19T10:31:52.748Z,9.00
2019-02-19T10:34:21.545Z,8.90
2019-02-19T10:36:50.471Z,9.00
2019-02-19T10:39:19.410Z,9.00
2019-02-19T10:41:48.212Z,9.00
2019-02-19T10:44:17.083Z,9.00
2019-02-19T10:46:46.007Z,9.10
2019-02-19T10:49:15.030Z,9.10
2019-02-19T10:51:43.877Z,9.00
2019-02-19T10:54:12.701Z,9.10
2019-02-19T10:56:41.657Z,9.10
2019-02-19T10:59:10.568Z,9.10
2019-02-19T11:01:54.543Z,9.10
2019-02-19T11:18:42.333Z,9.60
2019-02-19T11:21:19.307Z,9.40
2019-02-19T11:23:41.847Z,9.50
2019-02-19T11:26:10.715Z,9.60
2019-02-19T11:28:41.052Z,9.60
2019-02-19T11:31:10.365Z,9.70
2019-02-19T11:33:45.660Z,9.60
2019-02-19T11:36:14.676Z,9.70
2019-02-19T11:38:43.911Z,9.60
2019-02-19T11:41:14.305Z,9.50
2019-02-19T11:43:43.361Z,9.40
2019-02-19T11:46:12.423Z,9.60
2019-02-19T11:48:42.037Z,9.60
2019-02-19T11:51:11.357Z,9.50
2019-02-19T11:53:40.529Z,9.50
2019-02-19T11:56:09.699Z,9.40
2019-02-19T11:58:38.488Z,9.30
2019-02-19T12:01:07.530Z,9.30
2019-02-19T12:03:43.560Z,9.30
2019-02-19T12:06:14.229Z,9.30
2019-02-19T12:08:43.211Z,9.60
2019-02-19T12:11:12.077Z,9.60
2019-02-19T12:13:40.976Z,9.70
2019-02-19T12:16:09.835Z,9.70
2019-02-19T12:18:45.974Z,9.80
2019-02-19T12:21:10.665Z,10.00
2019-02-19T12:23:39.609Z,10.10
2019-02-19T12:26:08.447Z,10.10
2019-02-19T12:28:37.296Z,9.90
2019-02-19T12:31:06.243Z,9.80
2019-02-19T12:33:35.112Z,9.90
2019-02-19T12:36:04.074Z,10.00
2019-02-19T12:38:32.960Z,10.00
2019-02-19T12:41:02.175Z,9.80
2019-02-19T12:43:31.111Z,9.80
2019-02-19T12:45:59.982Z,9.80
2019-02-19T12:48:28.841Z,9.80
2019-02-19T12:50:57.849Z,9.80
2019-02-19T12:53:26.775Z,9.90
2019-02-19T12:55:55.683Z,10.00
2019-02-19T12:58:24.576Z,9.80
2019-02-19T13:00:53.368Z,9.80
2019-02-19T13:03:22.348Z,9.80
2019-02-19T13:05:51.246Z,9.90
2019-02-19T13:08:20.214Z,9.90
2019-02-19T13:10:49.224Z,9.80
2019-02-19T13:13:18.024Z,10.00
2019-02-19T13:15:46.902Z,10.10
2019-02-19T13:18:15.798Z,10.30
2019-02-19T13:20:44.596Z,10.00
2019-02-19T13:23:13.450Z,9.90
2019-02-19T13:25:42.698Z,9.80
2019-02-19T13:28:11.649Z,10.00
2019-02-19T13:30:40.621Z,10.00
2019-02-19T13:33:09.686Z,9.90
2019-02-19T13:35:38.630Z,9.80
2019-02-19T13:38:14.022Z,9.80
2019-02-19T13:40:43.148Z,9.80
2019-02-19T13:43:12.119Z,9.90
2019-02-19T13:45:40.980Z,9.80
2019-02-19T13:48:09.948Z,9.70
2019-02-19T13:50:39.103Z,9.60
2019-02-19T13:53:30.029Z,9.60
2019-02-19T13:55:59.939Z,9.60
2019-02-19T13:58:28.894Z,9.70
2019-02-19T14:00:57.756Z,9.70
2019-02-19T14:03:26.936Z,9.70
2019-02-19T14:05:55.809Z,9.70
2019-02-19T14:08:24.887Z,9.70
2019-02-19T14:10:53.714Z,9.70
2019-02-19T14:13:22.581Z,9.70
2019-02-19T14:16:01.020Z,9.80
2019-02-19T14:18:47.529Z,9.70
2019-02-19T14:21:35.430Z,9.70
2019-02-19T14:24:22.196Z,9.80
2019-02-19T14:27:08.905Z,9.80
2019-02-19T14:30:06.108Z,9.80
2019-02-19T14:32:47.113Z,10.00
2019-02-19T14:35:37.963Z,10.10
2019-02-19T14:38:35.208Z,10.00
2019-02-19T14:41:20.949Z,10.20
2019-02-19T14:44:01.219Z,10.20
2019-02-19T14:46:49.224Z,10.30
2019-02-19T14:49:37.631Z,10.20
2019-02-19T14:52:24.077Z,9.90
2019-02-19T14:55:07.733Z,9.80
2019-02-19T14:57:54.213Z,9.70
2019-02-19T15:00:42.611Z,9.60
2019-02-19T15:03:20.633Z,9.60
2019-02-19T15:06:07.453Z,9.60
2019-02-19T15:08:49.856Z,9.60
2019-02-19T15:11:47.580Z,9.50
2019-02-19T15:14:26.122Z,9.50
2019-02-19T15:17:12.577Z,9.50
2019-02-19T15:19:56.599Z,9.50
2019-02-19T15:22:44.621Z,9.50
2019-02-19T15:25:30.249Z,9.40
2019-02-19T15:28:24.417Z,9.40
2019-02-19T15:31:03.970Z,9.40
2019-02-19T15:33:54.740Z,9.40
2019-02-19T15:36:35.717Z,9.40
2019-02-19T15:39:12.188Z,9.30
2019-02-19T15:41:58.577Z,9.30
2019-02-19T15:44:45.772Z,9.20
2019-02-19T15:47:38.576Z,9.20
2019-02-19T15:50:26.783Z,9.30
2019-02-19T15:53:06.314Z,9.20
2019-02-19T15:55:57.277Z,9.20
2019-02-19T15:58:42.111Z,9.20
2019-02-19T16:01:42.061Z,9.10
2019-02-19T16:04:25.370Z,9.10
2019-02-19T16:07:10.957Z,9.00
2019-02-19T16:09:57.827Z,9.10
2019-02-19T16:12:45.835Z,9.10
2019-02-19T16:15:46.176Z,9.00
2019-02-19T16:18:27.906Z,9.10
2019-02-19T16:21:06.279Z,9.00
2019-02-19T16:23:41.860Z,9.00
2019-02-19T16:26:34.227Z,9.00
2019-02-19T16:29:26.315Z,9.00
2019-02-19T16:32:18.215Z,8.90
2019-02-19T16:35:06.247Z,8.90
2019-02-19T16:37:53.607Z,8.90
2019-02-19T16:40:36.162Z,9.00
2019-02-19T16:43:29.161Z,9.00
2019-02-19T16:46:17.235Z,9.00
2019-02-19T16:48:56.969Z,8.90
2019-02-19T16:51:38.055Z,8.90
2019-02-19T16:54:24.201Z,8.90
2019-02-19T16:57:15.277Z,8.90
2019-02-19T17:00:09.030Z,8.90
2019-02-19T17:02:54.424Z,8.90
2019-02-19T17:05:44.507Z,8.80
2019-02-19T17:08:28.414Z,8.80
2019-02-19T17:11:05.909Z,8.80
2019-02-19T17:13:47.326Z,8.80
2019-02-19T17:16:47.260Z,8.80
2019-02-19T17:19:38.037Z,8.80
2019-02-19T17:22:24.652Z,8.80
2019-02-19T17:25:02.212Z,8.80
2019-02-19T17:27:37.168Z,8.80
2019-02-19T17:30:28.392Z,8.80
2019-02-19T17:33:11.132Z,8.80
2019-02-19T17:35:47.584Z,8.80
2019-02-19T17:38:44.460Z,8.80
2019-02-19T17:41:21.536Z,8.80
2019-02-19T17:44:09.590Z,8.80
2019-02-19T17:46:55.161Z,8.80
2019-02-19T17:49:37.780Z,8.80
2019-02-19T17:52:15.856Z,8.80
2019-02-19T17:54:58.014Z,8.80
2019-02-19T17:57:37.188Z,8.70
2019-02-19T18:00:30.815Z,8.70
2019-02-19T18:03:09.509Z,8.70
2019-02-19T18:05:45.094Z,8.70
2019-02-19T18:08:39.170Z,8.60
2019-02-19T18:11:22.986Z,8.60
2019-02-19T18:14:13.814Z,8.60
2019-02-19T18:17:00.356Z,8.60
2019-02-19T18:19:29.570Z,8.60
2019-02-19T18:21:58.635Z,8.60
2019-02-19T18:24:27.626Z,8.60
2019-02-19T18:26:56.608Z,8.60
2019-02-19T18:29:25.674Z,8.50
2019-02-19T18:31:54.578Z,8.50
2019-02-19T18:34:23.592Z,8.50
2019-02-19T18:36:52.532Z,8.50
2019-02-19T18:39:21.398Z,8.50
2019-02-19T18:41:50.378Z,8.50
2019-02-19T18:44:19.286Z,8.50
2019-02-19T18:46:48.396Z,8.50
2019-02-19T18:49:17.446Z,8.50
2019-02-19T18:51:46.352Z,8.50
2019-02-19T18:54:15.260Z,8.60
2019-02-19T18:56:44.510Z,8.50
2019-02-19T18:59:13.431Z,8.50
2019-02-19T19:01:42.605Z,8.50
2019-02-19T19:04:11.464Z,8.50
2019-02-19T19:06:40.446Z,8.50
2019-02-19T19:09:09.519Z,8.50
2019-02-19T19:11:38.410Z,8.50
2019-02-19T19:14:07.435Z,8.50
2019-02-19T19:16:36.397Z,8.50
2019-02-19T19:19:05.311Z,8.50
2019-02-19T19:21:34.409Z,8.50
2019-02-19T19:24:03.404Z,8.50
2019-02-19T19:26:32.384Z,8.50
2019-02-19T19:29:01.335Z,8.50
2019-02-19T19:31:33.462Z,8.50
2019-02-19T19:34:00.838Z,8.50
2019-02-19T19:36:29.966Z,8.40
2019-02-19T19:38:58.797Z,8.00
2019-02-19T19:41:28.131Z,7.70
2019-02-19T19:43:57.106Z,7.50
2019-02-19T19:46:26.011Z,7.20
2019-02-19T19:48:54.897Z,6.90
2019-02-19T19:51:23.821Z,6.60
2019-02-19T19:53:52.817Z,6.30
2019-02-19T19:56:21.730Z,6.20
2019-02-19T19:58:50.841Z,6.00
2019-02-19T20:01:20.481Z,6.00
2019-02-19T20:03:49.866Z,5.90
2019-02-19T20:06:18.750Z,5.90
2019-02-19T20:08:47.771Z,5.90
2019-02-19T20:11:16.787Z,5.90
2019-02-19T20:13:45.858Z,5.90
2019-02-19T20:16:15.187Z,5.80
2019-02-19T20:18:44.316Z,5.80
2019-02-19T20:21:13.352Z,5.70
2019-02-19T20:23:42.219Z,5.70
2019-02-19T20:26:11.238Z,5.70
2019-02-19T20:28:40.181Z,5.60
2019-02-19T20:31:09.199Z,5.50
2019-02-19T20:33:38.164Z,5.50
2019-02-19T20:36:07.443Z,5.40
2019-02-19T20:38:36.329Z,5.40
2019-02-19T20:41:05.358Z,5.40
2019-02-19T20:43:34.346Z,5.40
2019-02-19T20:46:03.301Z,5.40
2019-02-19T20:48:32.451Z,5.40
2019-02-19T20:51:01.413Z,5.40
2019-02-19T20:53:30.375Z,5.40
2019-02-19T20:55:59.496Z,5.40
2019-02-19T20:58:30.490Z,5.40
2019-02-19T21:00:59.684Z,5.30
2019-02-19T21:03:28.989Z,5.30
2019-02-19T21:05:58.258Z,5.30
2019-02-19T21:08:27.648Z,5.40
2019-02-19T21:10:56.858Z,5.40
2019-02-19T21:13:26.329Z,5.40
2019-02-19T21:15:55.431Z,5.50
2019-02-19T21:18:25.044Z,5.50
2019-02-19T21:20:54.259Z,5.60
2019-02-19T21:23:23.747Z,5.60
2019-02-19T21:25:52.761Z,5.60
2019-02-19T21:28:21.582Z,5.70
2019-02-19T21:30:50.606Z,5.80
2019-02-19T21:33:19.740Z,5.80
2019-02-19T21:35:48.923Z,5.80
2019-02-19T21:38:17.900Z,5.90
2019-02-19T21:40:46.790Z,6.00
2019-02-19T21:43:15.895Z,5.90
2019-02-19T21:45:44.790Z,5.80
2019-02-19T21:48:13.743Z,5.80
2019-02-19T21:50:43.338Z,5.70
2019-02-19T21:53:12.390Z,5.60
2019-02-19T21:55:41.324Z,5.50
2019-02-19T21:58:11.234Z,5.50
2019-02-19T22:00:40.217Z,5.50
2019-02-19T22:05:58.890Z,5.50
2019-02-19T22:08:28.154Z,5.50
2019-02-19T22:11:56.841Z,5.50
2019-02-19T22:14:29.503Z,5.50
2019-02-19T22:20:34.143Z,5.40
2019-02-19T22:23:10.010Z,5.40
2019-02-19T22:25:39.635Z,5.30
2019-02-19T22:28:10.165Z,5.30
2019-02-19T22:30:40.414Z,5.30
2019-02-19T22:33:10.616Z,5.30
2019-02-19T22:35:39.854Z,5.30
2019-02-19T22:38:15.047Z,5.30
2019-02-19T22:40:45.296Z,5.30
2019-02-19T22:43:15.363Z,5.30
2019-02-19T22:45:44.924Z,5.30
2019-02-19T22:48:14.773Z,5.30
2019-02-19T22:50:47.100Z,5.20
2019-02-19T22:53:34.646Z,5.20
2019-02-19T22:56:09.468Z,5.10
2019-02-19T22:58:38.696Z,5.10
2019-02-19T23:01:20.640Z,5.10
2019-02-19T23:03:53.848Z,5.10
2019-02-19T23:06:26.708Z,5.10
2019-02-19T23:08:56.014Z,5.10
2019-02-19T23:11:25.738Z,5.20
2019-02-19T23:13:56.464Z,5.10
2019-02-19T23:16:25.992Z,5.20
2019-02-19T23:18:55.066Z,5.20
2019-02-19T23:21:31.592Z,5.20
2019-02-19T23:24:00.834Z,5.20
2019-02-19T23:26:44.632Z,5.20
2019-02-19T23:29:14.892Z,5.10
2019-02-19T23:31:45.125Z,5.20
2019-02-19T23:34:19.342Z,5.20
2019-02-19T23:36:57.046Z,5.20
2019-02-19T23:39:26.570Z,5.20
2019-02-19T23:41:56.022Z,5.20
2019-02-19T23:44:27.605Z,5.20
2019-02-19T23:46:59.169Z,5.30
2019-02-19T23:49:31.931Z,5.30
2019-02-19T23:52:03.746Z,5.30
2019-02-19T23:54:34.732Z,5.30
2019-02-19T23:57:04.438Z,5.40
2019-02-19T23:59:39.584Z,5.40
